createdAt,value
2023-09-27T00:00:42.404Z,400.00
2023-09-27T00:01:43.429Z,401.00
2023-09-27T00:02:44.021Z,404.00
2023-09-27T00:03:45.141Z,398.00
2023-09-27T00:04:46.660Z,395.00
2023-09-27T00:05:46.240Z,394.00
2023-09-27T00:06:46.739Z,390.00
2023-09-27T00:07:47.737Z,392.00
2023-09-27T00:08:48.210Z,389.00
2023-09-27T00:09:49.160Z,387.00
2023-09-27T00:10:49.757Z,392.00
2023-09-27T00:11:50.210Z,395.00
2023-09-27T00:12:52.672Z,393.00
2023-09-27T00:13:52.117Z,393.00
2023-09-27T00:14:53.073Z,390.00
2023-09-27T00:15:54.022Z,393.00
2023-09-27T00:16:55.007Z,393.00
2023-09-27T00:17:55.615Z,395.00
2023-09-27T00:18:56.447Z,394.00
2023-09-27T00:19:57.677Z,397.00
2023-09-27T00:20:58.666Z,392.00
2023-09-27T00:21:58.565Z,390.00
2023-09-27T00:22:59.519Z,390.00
2023-09-27T00:24:00.031Z,390.00
2023-09-27T00:25:01.643Z,394.00
2023-09-27T00:26:01.599Z,396.00
2023-09-27T00:27:03.147Z,395.00
2023-09-27T00:28:03.084Z,395.00
2023-09-27T00:29:04.721Z,401.00
2023-09-27T00:30:04.639Z,406.00
2023-09-27T00:31:05.581Z,404.00
2023-09-27T00:32:06.587Z,404.00
2023-09-27T00:33:07.042Z,404.00
2023-09-27T00:34:08.100Z,404.00
2023-09-27T00:35:08.563Z,399.00
2023-09-27T00:36:12.162Z,396.00
2023-09-27T00:37:10.725Z,395.00
2023-09-27T00:38:10.674Z,398.00
2023-09-27T00:39:12.157Z,401.00
2023-09-27T00:40:12.650Z,402.00
2023-09-27T00:41:13.182Z,401.00
2023-09-27T00:42:13.083Z,403.00
2023-09-27T00:43:14.034Z,402.00
2023-09-27T00:44:15.026Z,404.00
2023-09-27T00:45:15.928Z,406.00
2023-09-27T00:46:17.675Z,406.00
2023-09-27T00:47:17.602Z,403.00
2023-09-27T00:48:18.179Z,402.00
2023-09-27T00:49:18.634Z,401.00
2023-09-27T00:50:19.624Z,397.00
2023-09-27T00:51:20.082Z,394.00
2023-09-27T00:52:25.673Z,394.00
2023-09-27T00:53:21.669Z,393.00
2023-09-27T00:54:22.559Z,394.00
2023-09-27T00:55:24.162Z,399.00
2023-09-27T00:56:25.697Z,398.00
2023-09-27T00:57:24.991Z,402.00
2023-09-27T00:58:26.669Z,404.00
2023-09-27T00:59:26.742Z,404.00
2023-09-27T01:00:27.259Z,404.00
2023-09-27T01:01:27.718Z,403.00
2023-09-27T01:02:28.732Z,401.00
2023-09-27T01:03:30.250Z,399.00
2023-09-27T01:04:30.643Z,398.00
2023-09-27T01:05:31.146Z,396.00
2023-09-27T01:06:31.731Z,394.00
2023-09-27T01:07:32.690Z,394.00
2023-09-27T01:08:33.633Z,395.00
2023-09-27T01:09:35.175Z,399.00
2023-09-27T01:10:35.121Z,401.00
2023-09-27T01:11:36.061Z,404.00
2023-09-27T01:12:37.740Z,408.00
2023-09-27T01:13:37.735Z,408.00
2023-09-27T01:14:38.652Z,406.00
2023-09-27T01:15:39.603Z,407.00
2023-09-27T01:16:40.591Z,406.00
2023-09-27T01:17:42.217Z,404.00
2023-09-27T01:18:42.114Z,404.00
2023-09-27T01:19:43.053Z,404.00
2023-09-27T01:20:44.017Z,403.00
2023-09-27T01:21:45.174Z,402.00
2023-09-27T01:22:45.591Z,398.00
2023-09-27T01:23:46.548Z,398.00
2023-09-27T01:24:48.166Z,404.00
2023-09-27T01:25:52.797Z,402.00
2023-09-27T01:26:50.661Z,404.00
2023-09-27T01:27:50.165Z,408.00
2023-09-27T01:28:50.733Z,404.00
2023-09-27T01:29:50.726Z,404.00
2023-09-27T01:30:51.671Z,404.00
2023-09-27T01:31:52.696Z,406.00
2023-09-27T01:32:53.677Z,406.00
2023-09-27T01:33:54.081Z,411.00
2023-09-27T01:34:55.091Z,409.00
2023-09-27T01:35:56.161Z,412.00
2023-09-27T01:36:56.134Z,402.00
2023-09-27T01:37:57.096Z,402.00
2023-09-27T01:38:58.716Z,408.00
2023-09-27T01:39:58.650Z,407.00
2023-09-27T01:41:01.222Z,409.00
2023-09-27T01:42:00.113Z,408.00
2023-09-27T01:43:01.055Z,415.00
2023-09-27T01:44:02.055Z,412.00
2023-09-27T01:45:02.483Z,414.00
2023-09-27T01:46:03.460Z,409.00
2023-09-27T01:47:04.703Z,402.00
2023-09-27T01:48:04.691Z,399.00
2023-09-27T01:49:05.625Z,395.00
2023-09-27T01:50:07.227Z,403.00
2023-09-27T01:51:07.137Z,402.00
2023-09-27T01:52:08.050Z,404.00
2023-09-27T01:53:09.101Z,409.00
2023-09-27T01:54:10.278Z,405.00
2023-09-27T01:55:11.177Z,404.00
2023-09-27T01:56:11.147Z,401.00
2023-09-27T01:57:12.073Z,410.00
2023-09-27T01:58:13.666Z,406.00
2023-09-27T01:59:13.625Z,403.00
2023-09-27T02:00:15.171Z,405.00
2023-09-27T02:01:15.752Z,408.00
2023-09-27T02:02:15.746Z,406.00
2023-09-27T02:03:16.405Z,410.00
2023-09-27T02:04:17.678Z,411.00
2023-09-27T02:05:17.684Z,414.00
2023-09-27T02:06:19.725Z,417.00
2023-09-27T02:07:19.222Z,415.00
2023-09-27T02:08:19.694Z,413.00
2023-09-27T02:09:20.599Z,415.00
2023-09-27T02:10:22.177Z,410.00
2023-09-27T02:11:22.153Z,404.00
2023-09-27T02:12:23.670Z,405.00
2023-09-27T02:13:23.589Z,410.00
2023-09-27T02:14:24.600Z,412.00
2023-09-27T02:15:25.022Z,411.00
2023-09-27T02:16:26.697Z,412.00
2023-09-27T02:17:27.769Z,407.00
2023-09-27T02:18:27.197Z,401.00
2023-09-27T02:19:28.143Z,401.00
2023-09-27T02:20:29.204Z,401.00
2023-09-27T02:21:29.701Z,401.00
2023-09-27T02:22:30.691Z,401.00
2023-09-27T02:23:31.237Z,403.00
2023-09-27T02:24:31.625Z,403.00
2023-09-27T02:25:33.178Z,404.00
2023-09-27T02:26:33.132Z,403.00
2023-09-27T02:27:34.043Z,404.00
2023-09-27T02:28:35.720Z,401.00
2023-09-27T02:29:35.663Z,403.00
2023-09-27T02:30:36.599Z,404.00
2023-09-27T02:31:37.546Z,403.00
2023-09-27T02:32:39.266Z,402.00
2023-09-27T02:33:40.695Z,404.00
2023-09-27T02:34:40.689Z,407.00
2023-09-27T02:35:40.694Z,408.00
2023-09-27T02:36:42.705Z,407.00
2023-09-27T02:37:42.189Z,404.00
2023-09-27T02:38:43.113Z,402.00
2023-09-27T02:39:44.197Z,405.00
2023-09-27T02:40:45.226Z,409.00
2023-09-27T02:41:44.676Z,409.00
2023-09-27T02:42:45.615Z,411.00
2023-09-27T02:43:46.510Z,409.00
2023-09-27T02:44:48.168Z,409.00
2023-09-27T02:45:48.103Z,411.00
2023-09-27T02:46:49.055Z,415.00
2023-09-27T02:47:50.717Z,412.00
2023-09-27T02:48:52.979Z,417.00
2023-09-27T02:49:51.565Z,416.00
2023-09-27T02:50:52.487Z,420.00
2023-09-27T02:51:54.215Z,422.00
2023-09-27T02:52:54.184Z,419.00
2023-09-27T02:53:55.156Z,417.00
2023-09-27T02:54:55.625Z,417.00
2023-09-27T02:55:56.571Z,415.00
2023-09-27T02:56:57.492Z,417.00
2023-09-27T02:58:00.223Z,413.00
2023-09-27T02:58:59.252Z,410.00
2023-09-27T02:59:59.697Z,416.00
2023-09-27T03:01:01.244Z,417.00
2023-09-27T03:02:01.717Z,415.00
2023-09-27T03:03:02.192Z,410.00
2023-09-27T03:04:05.229Z,414.00
2023-09-27T03:05:03.181Z,412.00
2023-09-27T03:06:04.089Z,413.00
2023-09-27T03:07:05.000Z,413.00
2023-09-27T03:08:06.027Z,413.00
2023-09-27T03:09:06.453Z,416.00
2023-09-27T03:10:08.197Z,420.00
2023-09-27T03:11:08.723Z,417.00
2023-09-27T03:12:08.622Z,413.00
2023-09-27T03:13:09.585Z,410.00
2023-09-27T03:14:10.566Z,411.00
2023-09-27T03:15:12.062Z,413.00
2023-09-27T03:16:12.337Z,412.00
2023-09-27T03:17:13.273Z,410.00
2023-09-27T03:18:16.260Z,411.00
2023-09-27T03:19:15.137Z,412.00
2023-09-27T03:20:16.757Z,408.00
2023-09-27T03:21:16.653Z,407.00
2023-09-27T03:22:20.226Z,408.00
2023-09-27T03:23:18.186Z,409.00
2023-09-27T03:24:19.072Z,412.00
2023-09-27T03:25:20.085Z,407.00
2023-09-27T03:26:20.618Z,408.00
2023-09-27T03:27:22.186Z,409.00
2023-09-27T03:28:22.103Z,408.00
2023-09-27T03:29:24.744Z,409.00
2023-09-27T03:30:23.646Z,409.00
2023-09-27T03:31:24.637Z,407.00
2023-09-27T03:32:26.777Z,405.00
2023-09-27T03:33:25.706Z,406.00
2023-09-27T03:34:27.205Z,408.00
2023-09-27T03:35:27.228Z,409.00
2023-09-27T03:36:28.704Z,410.00
2023-09-27T03:37:28.624Z,410.00
2023-09-27T03:38:30.291Z,410.00
2023-09-27T03:39:30.261Z,411.00
2023-09-27T03:40:31.254Z,410.00
2023-09-27T03:41:31.758Z,408.00
2023-09-27T03:42:32.179Z,413.00
2023-09-27T03:43:33.718Z,416.00
2023-09-27T03:44:33.674Z,416.00
2023-09-27T03:45:34.655Z,416.00
2023-09-27T03:46:35.619Z,417.00
2023-09-27T03:47:36.585Z,413.00
2023-09-27T03:48:37.561Z,414.00
2023-09-27T03:49:38.518Z,415.00
2023-09-27T03:50:41.307Z,417.00
2023-09-27T03:51:40.702Z,414.00
2023-09-27T03:52:41.008Z,410.00
2023-09-27T03:53:41.944Z,409.00
2023-09-27T03:54:42.880Z,410.00
2023-09-27T03:55:46.719Z,410.00
2023-09-27T03:56:45.228Z,409.00
2023-09-27T03:57:45.195Z,406.00
2023-09-27T03:58:52.848Z,412.00
2023-09-27T03:59:46.856Z,411.00
2023-09-27T04:00:47.787Z,413.00
2023-09-27T04:01:48.733Z,412.00
2023-09-27T04:02:50.293Z,410.00
2023-09-27T04:03:50.387Z,409.00
2023-09-27T04:04:51.044Z,412.00
2023-09-27T04:05:51.443Z,410.00
2023-09-27T04:06:53.223Z,414.00
2023-09-27T04:07:53.206Z,416.00
2023-09-27T04:08:54.389Z,414.00
2023-09-27T04:09:54.955Z,416.00
2023-09-27T04:10:55.902Z,419.00
2023-09-27T04:11:56.859Z,419.00
2023-09-27T04:12:59.741Z,422.00
2023-09-27T04:13:59.245Z,420.00
2023-09-27T04:14:59.652Z,421.00
2023-09-27T04:16:00.586Z,420.00
2023-09-27T04:17:02.269Z,421.00
2023-09-27T04:18:02.280Z,422.00
2023-09-27T04:19:02.745Z,422.00
2023-09-27T04:20:03.709Z,421.00
2023-09-27T04:21:04.598Z,424.00
2023-09-27T04:22:05.618Z,427.00
2023-09-27T04:23:07.270Z,428.00
2023-09-27T04:24:07.747Z,431.00
2023-09-27T04:25:09.743Z,430.00
2023-09-27T04:26:08.739Z,431.00
2023-09-27T04:27:10.706Z,431.00
2023-09-27T04:28:10.681Z,427.00
2023-09-27T04:29:16.316Z,428.00
2023-09-27T04:30:13.747Z,424.00
2023-09-27T04:31:15.748Z,427.00
2023-09-27T04:32:14.780Z,426.00
2023-09-27T04:33:14.699Z,429.00
2023-09-27T04:34:15.616Z,423.00
2023-09-27T04:35:18.228Z,424.00
2023-09-27T04:36:17.252Z,425.00
2023-09-27T04:37:18.234Z,426.00
2023-09-27T04:38:19.180Z,428.00
2023-09-27T04:39:20.161Z,435.00
2023-09-27T04:40:20.630Z,434.00
2023-09-27T04:41:21.647Z,434.00
2023-09-27T04:42:26.729Z,434.00
2023-09-27T04:43:22.639Z,438.00
2023-09-27T04:44:23.592Z,440.00
2023-09-27T04:45:24.523Z,435.00
2023-09-27T04:46:25.740Z,433.00
2023-09-27T04:47:26.205Z,431.00
2023-09-27T04:48:27.128Z,431.00
2023-09-27T04:49:28.038Z,430.00
2023-09-27T04:50:29.135Z,430.00
2023-09-27T04:51:29.624Z,431.00
2023-09-27T04:52:35.232Z,434.00
2023-09-27T04:53:31.184Z,435.00
2023-09-27T04:54:32.766Z,434.00
2023-09-27T04:55:35.299Z,436.00
2023-09-27T04:56:33.286Z,433.00
2023-09-27T04:57:34.723Z,434.00
2023-09-27T04:58:38.535Z,439.00
2023-09-27T04:59:36.746Z,438.00
2023-09-27T05:00:39.722Z,438.00
2023-09-27T05:01:37.361Z,436.00
2023-09-27T05:02:40.952Z,435.00
2023-09-27T05:03:41.053Z,438.00
2023-09-27T05:04:40.419Z,437.00
2023-09-27T05:05:42.308Z,441.00
2023-09-27T05:06:43.250Z,443.00
2023-09-27T05:07:42.196Z,441.00
2023-09-27T05:08:43.163Z,442.00
2023-09-27T05:09:45.765Z,447.00
2023-09-27T05:10:44.657Z,441.00
2023-09-27T05:11:48.222Z,434.00
2023-09-27T05:12:46.754Z,432.00
2023-09-27T05:13:47.228Z,432.00
2023-09-27T05:14:47.670Z,437.00
2023-09-27T05:15:49.261Z,432.00
2023-09-27T05:16:50.824Z,437.00
2023-09-27T05:17:51.898Z,434.00
2023-09-27T05:18:51.026Z,657.00
2023-09-27T05:19:51.602Z,554.00
2023-09-27T05:20:55.230Z,452.00
2023-09-27T05:21:53.141Z,437.00
2023-09-27T05:22:54.090Z,434.00
2023-09-27T05:23:55.736Z,431.00
2023-09-27T05:24:55.809Z,431.00
2023-09-27T05:25:56.186Z,429.00
2023-09-27T05:26:57.106Z,428.00
2023-09-27T05:27:58.269Z,425.00
2023-09-27T05:28:58.707Z,421.00
2023-09-27T05:30:00.276Z,419.00
2023-09-27T05:31:00.205Z,416.00
2023-09-27T05:32:01.124Z,421.00
2023-09-27T05:33:01.724Z,425.00
2023-09-27T05:34:02.145Z,427.00
2023-09-27T05:35:03.118Z,429.00
2023-09-27T05:36:04.053Z,430.00
2023-09-27T05:37:05.032Z,432.00
2023-09-27T05:38:05.954Z,425.00
2023-09-27T05:39:06.849Z,425.00
2023-09-27T05:40:07.767Z,424.00
2023-09-27T05:41:08.694Z,423.00
2023-09-27T05:42:09.763Z,418.00
2023-09-27T05:43:10.739Z,419.00
2023-09-27T05:44:12.767Z,419.00
2023-09-27T05:45:11.663Z,416.00
2023-09-27T05:46:15.249Z,414.00
2023-09-27T05:47:13.513Z,418.00
2023-09-27T05:48:16.763Z,423.00
2023-09-27T05:49:15.238Z,425.00
2023-09-27T05:50:15.480Z,422.00
2023-09-27T05:51:16.732Z,415.00
2023-09-27T05:52:16.641Z,414.00
2023-09-27T05:53:18.293Z,416.00
2023-09-27T05:54:18.740Z,415.00
2023-09-27T05:55:20.758Z,415.00
2023-09-27T05:56:19.752Z,415.00
2023-09-27T05:57:20.241Z,420.00
2023-09-27T05:58:21.237Z,419.00
2023-09-27T05:59:23.769Z,421.00
2023-09-27T06:00:22.816Z,419.00
2023-09-27T06:01:23.635Z,415.00
2023-09-27T06:02:24.816Z,435.00
2023-09-27T06:03:24.872Z,429.00
2023-09-27T06:04:27.328Z,422.00
2023-09-27T06:05:26.340Z,416.00
2023-09-27T06:06:26.762Z,412.00
2023-09-27T06:07:27.770Z,412.00
2023-09-27T06:08:30.747Z,409.00
2023-09-27T06:09:30.808Z,407.00
2023-09-27T06:10:32.782Z,406.00
2023-09-27T06:11:31.419Z,406.00
2023-09-27T06:12:31.316Z,406.00
2023-09-27T06:13:32.242Z,404.00
2023-09-27T06:14:33.795Z,404.00
2023-09-27T06:15:33.723Z,403.00
2023-09-27T06:16:39.269Z,403.00
2023-09-27T06:17:35.824Z,406.00
2023-09-27T06:18:35.865Z,408.00
2023-09-27T06:19:36.797Z,405.00
2023-09-27T06:20:39.242Z,405.00
2023-09-27T06:21:38.671Z,404.00
2023-09-27T06:22:39.560Z,404.00
2023-09-27T06:23:40.664Z,403.00
2023-09-27T06:24:41.134Z,399.00
2023-09-27T06:25:44.873Z,401.00
2023-09-27T06:26:42.772Z,400.00
2023-09-27T06:27:46.233Z,400.00
2023-09-27T06:28:47.264Z,399.00
2023-09-27T06:29:45.394Z,398.00
2023-09-27T06:30:48.252Z,396.00
2023-09-27T06:31:48.797Z,398.00
2023-09-27T06:32:48.902Z,395.00
2023-09-27T06:33:49.255Z,396.00
2023-09-27T06:34:49.242Z,399.00
2023-09-27T06:35:49.779Z,397.00
2023-09-27T06:36:50.795Z,400.00
2023-09-27T06:37:50.953Z,396.00
2023-09-27T06:38:51.606Z,394.00
2023-09-27T06:39:53.761Z,392.00
2023-09-27T06:40:52.682Z,392.00
2023-09-27T06:41:56.308Z,393.00
2023-09-27T06:42:54.254Z,393.00
2023-09-27T06:43:55.758Z,390.00
2023-09-27T06:44:56.248Z,391.00
2023-09-27T06:45:57.771Z,395.00
2023-09-27T06:46:57.278Z,397.00
2023-09-27T06:47:57.874Z,396.00
2023-09-27T06:48:57.833Z,396.00
2023-09-27T06:49:58.755Z,397.00
2023-09-27T06:51:01.248Z,398.00
2023-09-27T06:52:01.745Z,399.00
2023-09-27T06:53:19.863Z,403.00
2023-09-27T06:54:03.216Z,404.00
2023-09-27T06:55:02.626Z,404.00
2023-09-27T06:56:04.024Z,407.00
2023-09-27T06:57:04.482Z,406.00
2023-09-27T06:58:05.400Z,405.00
2023-09-27T06:59:06.409Z,403.00
2023-09-27T07:00:08.478Z,402.00
2023-09-27T07:01:07.626Z,400.00
2023-09-27T07:02:08.082Z,401.00
2023-09-27T07:03:09.040Z,403.00
2023-09-27T07:04:10.463Z,398.00
2023-09-27T07:05:11.366Z,400.00
2023-09-27T07:06:11.841Z,400.00
2023-09-27T07:07:13.869Z,400.00
2023-09-27T07:08:12.902Z,400.00
2023-09-27T07:09:13.356Z,401.00
2023-09-27T07:10:14.308Z,401.00
2023-09-27T07:11:15.902Z,399.00
2023-09-27T07:12:16.763Z,399.00
2023-09-27T07:13:18.273Z,400.00
2023-09-27T07:14:17.353Z,398.00
2023-09-27T07:15:17.958Z,398.00
2023-09-27T07:16:20.395Z,403.00
2023-09-27T07:17:20.448Z,400.00
2023-09-27T07:18:20.022Z,404.00
2023-09-27T07:19:27.333Z,405.00
2023-09-27T07:20:22.436Z,405.00
2023-09-27T07:21:21.913Z,404.00
2023-09-27T07:22:22.817Z,402.00
2023-09-27T07:23:24.313Z,403.00
2023-09-27T07:24:24.714Z,403.00
2023-09-27T07:25:48.391Z,402.00
2023-09-27T07:26:28.012Z,403.00
2023-09-27T07:27:26.905Z,402.00
2023-09-27T07:28:29.755Z,405.00
2023-09-27T07:29:28.788Z,405.00
2023-09-27T07:30:29.210Z,402.00
2023-09-27T07:31:32.333Z,402.00
2023-09-27T07:32:30.859Z,400.00
2023-09-27T07:33:33.300Z,401.00
2023-09-27T07:34:32.252Z,397.00
2023-09-27T07:35:34.861Z,398.00
2023-09-27T07:36:34.275Z,396.00
2023-09-27T07:37:34.276Z,397.00
2023-09-27T07:38:35.298Z,395.00
2023-09-27T07:39:35.693Z,396.00
2023-09-27T07:40:37.267Z,395.00
2023-09-27T07:41:37.444Z,399.00
2023-09-27T07:42:37.936Z,399.00
2023-09-27T07:43:40.774Z,395.00
2023-09-27T07:44:40.385Z,394.00
2023-09-27T07:45:40.488Z,397.00
2023-09-27T07:46:42.875Z,400.00
2023-09-27T07:47:42.824Z,403.00
2023-09-27T07:48:42.742Z,404.00
2023-09-27T07:49:43.645Z,405.00
2023-09-27T07:50:45.310Z,405.00
2023-09-27T07:51:45.201Z,404.00
2023-09-27T07:52:47.281Z,406.00
2023-09-27T07:53:48.385Z,405.00
2023-09-27T07:54:47.344Z,406.00
2023-09-27T07:55:48.204Z,407.00
2023-09-27T07:56:49.192Z,404.00
2023-09-27T07:57:50.108Z,404.00
2023-09-27T07:58:51.173Z,406.00
2023-09-27T07:59:52.672Z,405.00
2023-09-27T08:00:53.270Z,405.00
2023-09-27T08:01:54.806Z,403.00
2023-09-27T08:02:55.419Z,402.00
2023-09-27T08:03:55.369Z,406.00
2023-09-27T08:04:57.286Z,407.00
2023-09-27T08:05:56.300Z,408.00
2023-09-27T08:06:56.756Z,408.00
2023-09-27T08:07:57.667Z,405.00
2023-09-27T08:08:58.596Z,405.00
2023-09-27T08:10:06.685Z,404.00
2023-09-27T08:11:01.314Z,404.00
2023-09-27T08:12:01.240Z,404.00
2023-09-27T08:13:02.125Z,403.00
2023-09-27T08:14:03.100Z,403.00
2023-09-27T08:15:04.780Z,402.00
2023-09-27T08:16:04.703Z,404.00
2023-09-27T08:17:05.740Z,404.00
2023-09-27T08:18:06.345Z,405.00
2023-09-27T08:19:07.242Z,403.00
2023-09-27T08:20:08.233Z,403.00
2023-09-27T08:21:09.150Z,402.00
2023-09-27T08:22:10.050Z,401.00
2023-09-27T08:23:11.014Z,400.00
2023-09-27T08:24:11.915Z,401.00
2023-09-27T08:25:12.853Z,401.00
2023-09-27T08:26:13.957Z,398.00
2023-09-27T08:27:14.513Z,398.00
2023-09-27T08:28:15.395Z,396.00
2023-09-27T08:29:16.353Z,394.00
2023-09-27T08:30:17.292Z,397.00
2023-09-27T08:31:18.037Z,396.00
2023-09-27T08:32:18.482Z,394.00
2023-09-27T08:33:19.429Z,395.00
2023-09-27T08:34:19.933Z,396.00
2023-09-27T08:35:20.919Z,400.00
2023-09-27T08:36:21.800Z,402.00
2023-09-27T08:37:22.702Z,401.00
2023-09-27T08:38:23.641Z,398.00
2023-09-27T08:39:24.550Z,401.00
2023-09-27T08:40:26.285Z,399.00
2023-09-27T08:41:26.199Z,400.00
2023-09-27T08:42:27.105Z,400.00
2023-09-27T08:43:28.775Z,399.00
2023-09-27T08:44:28.757Z,399.00
2023-09-27T08:45:29.645Z,397.00
2023-09-27T08:46:30.611Z,398.00
2023-09-27T08:47:31.538Z,395.00
2023-09-27T08:48:32.629Z,397.00
2023-09-27T08:49:32.639Z,393.00
2023-09-27T08:50:33.644Z,396.00
2023-09-27T08:51:34.050Z,395.00
2023-09-27T08:52:36.818Z,393.00
2023-09-27T08:53:36.367Z,394.00
2023-09-27T08:54:36.304Z,392.00
2023-09-27T08:55:37.191Z,396.00
2023-09-27T08:56:38.146Z,394.00
2023-09-27T08:57:39.115Z,397.00
2023-09-27T08:58:39.983Z,398.00
2023-09-27T08:59:40.947Z,396.00
2023-09-27T09:00:41.917Z,399.00
2023-09-27T09:01:42.856Z,398.00
2023-09-27T09:02:45.569Z,400.00
2023-09-27T09:03:44.824Z,402.00
2023-09-27T09:04:45.281Z,402.00
2023-09-27T09:05:46.931Z,402.00
2023-09-27T09:06:46.881Z,401.00
2023-09-27T09:07:48.795Z,399.00
2023-09-27T09:08:48.731Z,398.00
2023-09-27T09:09:49.670Z,391.00
2023-09-27T09:10:50.553Z,393.00
2023-09-27T09:11:51.480Z,392.00
2023-09-27T09:12:52.441Z,390.00
2023-09-27T09:13:54.292Z,390.00
2023-09-27T09:14:54.806Z,389.00
2023-09-27T09:15:54.754Z,391.00
2023-09-27T09:16:55.667Z,392.00
2023-09-27T09:17:56.593Z,391.00
2023-09-27T09:18:57.640Z,390.00
2023-09-27T09:19:58.191Z,389.00
2023-09-27T11:46:34.754Z,377.00
2023-09-27T11:47:35.766Z,383.00
2023-09-27T11:48:36.554Z,380.00
2023-09-27T11:49:37.047Z,376.00
2023-09-27T11:50:37.996Z,372.00
2023-09-27T11:51:38.475Z,372.00
2023-09-27T11:52:39.367Z,374.00
2023-09-27T11:53:40.322Z,374.00
2023-09-27T11:54:41.270Z,375.00
2023-09-27T11:55:42.692Z,373.00
2023-09-27T11:56:44.928Z,373.00
2023-09-27T11:57:43.646Z,373.00
2023-09-27T11:58:44.553Z,376.00
2023-09-27T11:59:46.234Z,373.00
2023-09-27T12:00:46.109Z,371.00
2023-09-27T12:01:47.039Z,370.00
2023-09-27T12:02:57.044Z,369.00
2023-09-27T12:03:52.532Z,373.00
2023-09-27T12:04:49.979Z,374.00
2023-09-27T12:05:52.671Z,373.00
2023-09-27T12:06:53.314Z,374.00
2023-09-27T12:07:53.341Z,378.00
2023-09-27T12:08:53.343Z,379.00
2023-09-27T12:09:53.926Z,376.00
2023-09-27T12:10:56.636Z,375.00
2023-09-27T12:11:55.564Z,378.00
2023-09-27T12:12:58.144Z,379.00
2023-09-27T12:13:57.092Z,377.00
2023-09-27T12:14:58.038Z,376.00
2023-09-27T12:15:59.650Z,379.00
2023-09-27T12:16:59.712Z,380.00
2023-09-27T12:18:00.338Z,380.00
2023-09-27T12:19:03.656Z,377.00
2023-09-27T12:20:01.553Z,379.00
2023-09-27T12:21:02.480Z,377.00
2023-09-27T12:22:04.156Z,378.00
2023-09-27T12:23:05.685Z,375.00
2023-09-27T12:24:04.622Z,372.00
2023-09-27T12:25:06.134Z,373.00
2023-09-27T12:26:06.052Z,374.00
2023-09-27T12:27:06.981Z,378.00
2023-09-27T12:28:08.652Z,375.00
2023-09-27T12:29:08.562Z,373.00
2023-09-27T12:30:09.482Z,374.00
2023-09-27T12:31:10.461Z,376.00
2023-09-27T12:32:11.503Z,375.00
2023-09-27T12:33:14.739Z,374.00
2023-09-27T12:34:12.624Z,370.00
2023-09-27T12:35:13.529Z,369.00
2023-09-27T12:36:14.440Z,369.00
2023-09-27T12:37:15.407Z,372.00
2023-09-27T12:38:18.181Z,371.00
2023-09-27T12:39:20.778Z,371.00
2023-09-27T12:40:17.823Z,371.00
2023-09-27T12:41:18.771Z,369.00
2023-09-27T13:32:35.581Z,379.00
2023-09-27T13:33:37.730Z,380.00
2023-09-27T13:34:36.635Z,379.00
2023-09-27T13:35:38.250Z,374.00
2023-09-27T13:36:39.722Z,373.00
2023-09-27T13:37:41.693Z,376.00
2023-09-27T13:38:40.169Z,375.00
2023-09-27T13:39:41.096Z,376.00
2023-09-27T13:40:42.029Z,377.00
2023-09-27T13:41:43.854Z,378.00
2023-09-27T13:42:43.904Z,376.00
2023-09-27T13:43:44.450Z,375.00
2023-09-27T13:44:46.289Z,377.00
2023-09-27T13:45:47.964Z,375.00
2023-09-27T13:46:50.568Z,374.00
2023-09-27T13:47:48.122Z,375.00
2023-09-27T13:48:48.527Z,373.00
2023-09-27T13:49:51.202Z,379.00
2023-09-27T13:50:50.177Z,378.00
2023-09-27T13:51:50.677Z,378.00
2023-09-27T13:52:52.245Z,374.00
2023-09-27T13:53:52.217Z,377.00
2023-09-27T13:54:54.210Z,378.00
2023-09-27T13:55:53.665Z,375.00
2023-09-27T13:56:54.612Z,376.00
2023-09-27T13:57:57.229Z,377.00
2023-09-27T13:58:56.711Z,380.00
2023-09-27T13:59:57.200Z,379.00
2023-09-27T14:00:58.187Z,378.00
2023-09-27T14:01:58.761Z,375.00
2023-09-27T14:02:59.332Z,378.00
2023-09-27T14:03:59.790Z,376.00
2023-09-27T14:05:00.741Z,374.00
2023-09-27T14:06:02.253Z,373.00
2023-09-27T14:07:02.181Z,374.00
2023-09-27T14:08:03.099Z,377.00
2023-09-27T14:09:04.100Z,376.00
2023-09-27T14:10:04.571Z,377.00
2023-09-27T14:11:05.564Z,376.00
2023-09-27T14:12:06.531Z,375.00
2023-09-27T14:13:08.208Z,373.00
2023-09-27T14:14:08.288Z,376.00
2023-09-27T14:15:08.759Z,376.00
2023-09-27T14:16:09.275Z,377.00
2023-09-27T14:17:09.762Z,374.00
2023-09-27T14:18:11.360Z,372.00
2023-09-27T14:19:11.281Z,371.00
2023-09-27T14:20:12.256Z,377.00
2023-09-27T14:21:13.753Z,379.00
2023-09-27T14:22:13.661Z,380.00
2023-09-27T14:23:14.603Z,372.00
2023-09-27T14:24:15.905Z,371.00
2023-09-27T14:25:16.384Z,371.00
2023-09-27T14:26:19.255Z,376.00
2023-09-27T14:27:18.139Z,376.00
2023-09-27T14:28:19.730Z,376.00
2023-09-27T14:29:29.898Z,374.00
2023-09-27T14:30:21.599Z,373.00
2023-09-27T14:31:21.134Z,370.00
2023-09-27T14:32:22.241Z,369.00
2023-09-27T14:33:22.685Z,371.00
2023-09-27T14:34:23.705Z,373.00
2023-09-27T14:35:24.142Z,374.00
2023-09-27T14:36:25.069Z,373.00
2023-09-27T14:37:25.968Z,371.00
2023-09-27T14:38:26.946Z,370.00
2023-09-27T14:39:27.895Z,372.00
2023-09-27T14:40:29.774Z,372.00
2023-09-27T14:41:29.657Z,371.00
2023-09-27T14:42:30.617Z,370.00
2023-09-27T14:43:31.592Z,371.00
2023-09-27T14:44:33.246Z,371.00
2023-09-27T14:45:33.223Z,374.00
2023-09-27T14:46:34.971Z,372.00
2023-09-27T14:47:36.757Z,370.00
2023-09-27T14:48:35.727Z,366.00
2023-09-27T14:49:36.745Z,367.00
2023-09-27T14:50:37.136Z,366.00
2023-09-27T14:51:38.077Z,366.00
2023-09-27T14:52:39.059Z,366.00
2023-09-27T14:53:39.626Z,365.00
2023-09-27T14:54:41.238Z,361.00
2023-09-27T14:55:41.178Z,362.00
2023-09-27T14:56:42.089Z,362.00
2023-09-27T14:57:43.036Z,365.00
2023-09-27T15:06:19.180Z,392.00
2023-09-27T15:07:19.208Z,383.00
2023-09-27T15:08:21.150Z,381.00
2023-09-27T15:09:20.565Z,384.00
2023-09-27T15:10:22.407Z,384.00
2023-09-27T15:11:23.138Z,383.00
2023-09-27T15:12:23.644Z,378.00
2023-09-27T15:13:23.559Z,375.00
2023-09-27T15:14:25.150Z,377.00
2023-09-27T15:15:25.077Z,378.00
2023-09-27T15:16:26.153Z,385.00
2023-09-27T15:17:26.625Z,388.00
2023-09-27T15:18:27.558Z,388.00
2023-09-27T15:19:29.188Z,386.00
2023-09-27T15:20:29.192Z,383.00
2023-09-27T15:21:31.685Z,382.00
2023-09-27T15:22:35.697Z,383.00
2023-09-27T15:23:31.578Z,381.00
2023-09-27T15:24:35.967Z,377.00
2023-09-27T15:25:33.561Z,375.00
2023-09-27T15:26:33.966Z,374.00
2023-09-27T15:27:34.887Z,375.00
2023-09-27T15:28:37.713Z,374.00
2023-09-27T15:29:37.163Z,374.00
2023-09-27T15:30:38.178Z,375.00
2023-09-27T15:31:39.710Z,375.00
2023-09-27T15:32:38.671Z,378.00
2023-09-27T15:33:41.169Z,380.00
2023-09-27T15:34:40.737Z,382.00
2023-09-27T15:35:40.682Z,379.00
2023-09-27T15:36:43.186Z,377.00
2023-09-27T15:37:43.166Z,376.00
2023-09-27T15:38:43.117Z,372.00
2023-09-27T15:39:44.129Z,368.00
2023-09-27T15:40:44.569Z,370.00
2023-09-27T15:41:45.465Z,368.00
2023-09-27T15:42:46.377Z,365.00
2023-09-27T15:43:49.317Z,368.00
2023-09-27T15:44:48.160Z,377.00
2023-09-27T15:45:49.687Z,378.00
2023-09-27T15:46:49.676Z,371.00
2023-09-27T15:47:50.083Z,374.00
2023-09-27T15:48:51.659Z,381.00
2023-09-27T15:49:51.580Z,383.00
2023-09-27T15:50:52.469Z,380.00
2023-09-27T15:51:53.302Z,375.00
2023-09-27T15:52:54.236Z,368.00
2023-09-27T15:54:03.654Z,369.00
2023-09-27T15:54:56.982Z,369.00
2023-09-27T15:55:58.728Z,370.00
2023-09-27T15:56:58.171Z,375.00
2023-09-27T15:57:58.625Z,381.00
2023-09-27T15:58:59.648Z,384.00
2023-09-27T16:00:00.125Z,385.00
2023-09-27T16:01:01.099Z,382.00
2023-09-27T16:02:02.057Z,383.00